Latest Weather Observations for Esperance Harbour

IDW60801

Issued at 8:32 am WST Wednesday 10 February 2016 (issued every 30 minutes, with the page automatically refreshed every 10 minutes)

About weather observations | Map of weather stations | Latest weather observations for WA | Other Formats
Station Details ID: 109504 Name: ESPERANCE NTC AWS Lat: -33.87 Lon: 121.90 Height: 0.0 m
Data from the previous 72 hours. | See also: Recent months for locations in Western Australia
Date/Time
WST
Temp
°C
App
Temp
°C
Dew
Point
Rel
Hum
%
Delta-T
°C
Wind Press
QNH
hPa
Press
MSL
hPa
Rain
since 9 am
mm
Dir
 
Spd
km/h
Gust
km/h
Spd
kts
Gust
kts
10/08:30am 21.6 - - - - - - - - - 1017.0 1017.0 -
10/08:00am 21.2 - - - - - - - - - 1017.0 1017.0 -
10/07:30am 20.7 - - - - - - - - - 1016.9 1016.9 -
10/07:00am 19.4 - - - - - - - - - 1016.9 1016.9 -
10/06:30am 18.3 - - - - - - - - - 1016.7 1016.7 -
10/06:00am 18.0 - - - - - - - - - 1016.6 1016.6 -
10/05:30am 19.0 - - - - - - - - - 1016.3 1016.3 -
10/05:00am 20.9 - - - - - - - - - 1015.8 1015.8 -
10/04:30am 20.4 - - - - - - - - - 1015.5 1015.5 -
10/04:00am 20.4 - - - - - - - - - 1015.4 1015.4 -
10/03:30am 20.4 - - - - - - - - - 1015.0 1015.0 -
10/03:00am 20.7 - - - - - - - - - 1014.7 1014.7 -
10/02:30am 21.0 - - - - - - - - - 1014.6 1014.6 -
10/02:00am 21.6 - - - - - - - - - 1014.5 1014.5 -
10/01:30am 22.7 - - - - - - - - - 1014.5 1014.5 -
10/01:00am 23.6 - - - - - - - - - 1014.6 1014.6 -
10/12:30am 23.3 - - - - - - - - - 1014.4 1014.4 -
10/12:00am 23.8 - - - - - - - - - 1014.5 1014.5 -
 
Date/Time
WST
Temp
°C
App
Temp
°C
Dew
Point
Rel
Hum
%
Delta-T
°C
Wind Press
QNH
hPa
Press
MSL
hPa
Rain
since 9 am
mm
Dir
 
Spd
km/h
Gust
km/h
Spd
kts
Gust
kts
09/11:30pm 24.0 - - - - - - - - - 1014.6 1014.6 -
09/11:00pm 24.1 - - - - - - - - - 1014.7 1014.7 -
09/10:30pm 23.9 - - - - - - - - - 1014.8 1014.8 -
09/10:00pm 24.5 - - - - - - - - - 1015.2 1015.2 -
09/09:30pm 25.2 - - - - - - - - - 1015.3 1015.3 -
09/09:00pm 24.1 - - - - - - - - - 1015.4 1015.4 -
09/08:30pm 23.4 - - - - - - - - - 1015.3 1015.3 -
09/08:00pm 23.6 - - - - - - - - - 1015.3 1015.3 -
09/07:30pm 24.1 - - - - - - - - - 1015.3 1015.3 -
09/07:00pm 25.1 - - - - - - - - - 1015.2 1015.2 -
09/06:30pm 25.8 - - - - - - - - - 1015.0 1015.0 -
09/06:00pm 26.5 - - - - - - - - - 1014.9 1014.9 -
09/05:30pm 27.4 - - - - - - - - - 1014.8 1014.8 -
09/05:00pm 27.9 - - - - - - - - - 1014.5 1014.5 -
09/04:30pm 27.6 - - - - - - - - - 1014.3 1014.3 -
09/04:00pm 27.6 - - - - - - - - - 1014.4 1014.4 -
09/03:30pm 25.9 - - - - - - - - - 1014.4 1014.4 -
09/03:00pm 26.7 - - - - - - - - - 1014.5 1014.5 -
09/02:30pm 26.5 - - - - - - - - - 1014.5 1014.5 -
09/02:00pm 27.5 - - - - - - - - - 1014.6 1014.6 -
09/01:30pm 28.7 - - - - - - - - - 1014.7 1014.7 -
09/01:00pm 29.3 - - - - - - - - - 1015.0 1015.0 -
09/12:30pm 27.6 - - - - - - - - - 1015.3 1015.3 -
09/12:00pm 27.5 - - - - - - - - - 1015.7 1015.7 -
09/11:30am 26.7 - - - - - - - - - 1016.1 1016.1 -
09/11:00am 27.6 - - - - - - - - - 1016.5 1016.5 -
09/10:30am 27.4 - - - - - - - - - 1016.9 1016.9 -
09/10:00am 26.7 - - - - - - - - - 1017.4 1017.4 -
09/09:30am 25.7 - - - - - - - - - 1017.6 1017.6 -
09/09:00am 23.8 - - - - - - - - - 1017.7 1017.7 -
09/08:30am 22.2 - - - - - - - - - 1017.9 1017.9 -
09/08:00am 21.0 - - - - - - - - - 1018.0 1018.0 -
09/07:30am 19.8 - - - - - - - - - 1018.3 1018.3 -
09/07:00am 18.9 - - - - - - - - - 1018.5 1018.5 -
09/06:30am 18.5 - - - - - - - - - 1018.4 1018.4 -
09/06:00am 18.1 - - - - - - - - - 1018.2 1018.2 -
09/05:30am 17.9 - - - - - - - - - 1018.2 1018.2 -
09/05:00am 18.1 - - - - - - - - - 1017.9 1017.9 -
09/04:30am 18.2 - - - - - - - - - 1017.7 1017.7 -
09/04:00am 18.2 - - - - - - - - - 1017.8 1017.8 -
09/03:30am 18.2 - - - - - - - - - 1018.0 1018.0 -
09/03:00am 18.2 - - - - - - - - - 1018.1 1018.1 -
09/02:30am 18.1 - - - - - - - - - 1018.3 1018.3 -
09/02:00am 18.2 - - - - - - - - - 1018.5 1018.5 -
09/01:30am 18.5 - - - - - - - - - 1018.6 1018.6 -
09/01:00am 19.0 - - - - - - - - - 1018.8 1018.8 -
09/12:30am 19.2 - - - - - - - - - 1019.2 1019.2 -
09/12:00am 19.6 - - - - - - - - - 1019.4 1019.4 -
 
Date/Time
WST
Temp
°C
App
Temp
°C
Dew
Point
Rel
Hum
%
Delta-T
°C
Wind Press
QNH
hPa
Press
MSL
hPa
Rain
since 9 am
mm
Dir
 
Spd
km/h
Gust
km/h
Spd
kts
Gust
kts
08/11:30pm 19.6 - - - - - - - - - 1019.6 1019.6 -
08/11:00pm 19.8 - - - - - - - - - 1019.7 1019.7 -
08/10:30pm 20.2 - - - - - - - - - 1019.9 1019.9 -
08/10:00pm 20.8 - - - - - - - - - 1020.0 1020.0 -
08/09:30pm 21.5 - - - - - - - - - 1020.0 1020.0 -
08/09:00pm 21.3 - - - - - - - - - 1020.0 1020.0 -
08/08:30pm 21.3 - - - - - - - - - 1019.6 1019.6 -
08/08:00pm 21.3 - - - - - - - - - 1019.5 1019.5 -
08/07:30pm 21.6 - - - - - - - - - 1019.3 1019.3 -
08/07:00pm 21.9 - - - - - - - - - 1019.0 1019.0 -
08/06:30pm 22.3 - - - - - - - - - 1018.5 1018.5 -
08/06:00pm 22.6 - - - - - - - - - 1018.1 1018.1 -
08/05:30pm 23.3 - - - - - - - - - 1018.3 1018.3 -
08/05:00pm 23.1 - - - - - - - - - 1018.2 1018.2 -
08/04:30pm 23.9 - - - - - - - - - 1018.5 1018.5 -
08/04:00pm 24.0 - - - - - - - - - 1018.7 1018.7 -
08/03:30pm 23.7 - - - - - - - - - 1018.8 1018.8 -
08/03:00pm 24.5 - - - - - - - - - 1019.1 1019.1 -
08/02:30pm 24.5 - - - - - - - - - 1019.3 1019.3 -
08/02:00pm 24.8 - - - - - - - - - 1019.6 1019.6 -
08/01:30pm 23.9 - - - - - - - - - 1019.9 1019.9 -
08/01:00pm 24.0 - - - - - - - - - 1020.1 1020.1 -
08/12:30pm 23.9 - - - - - - - - - 1020.3 1020.3 -
08/12:00pm 23.7 - - - - - - - - - 1020.6 1020.6 -
08/11:30am 24.7 - - - - - - - - - 1021.0 1020.9 -
08/11:00am 25.5 - - - - - - - - - 1021.5 1021.4 -
08/10:30am 24.4 - - - - - - - - - 1021.9 1021.8 -
08/10:00am 23.2 - - - - - - - - - 1022.1 1022.0 -
08/09:30am 22.4 - - - - - - - - - 1022.4 1022.3 -
08/09:00am 21.4 - - - - - - - - - 1022.4 1022.3 -
08/08:30am 20.5 - - - - - - - - - 1022.6 1022.5 -
08/08:00am 19.8 - - - - - - - - - 1022.8 1022.7 -
08/07:30am 19.0 - - - - - - - - - 1022.9 1022.8 -
08/07:00am 18.5 - - - - - - - - - 1022.8 1022.7 -
08/06:30am 18.1 - - - - - - - - - 1022.6 1022.5 -
08/06:00am 17.9 - - - - - - - - - 1022.3 1022.2 -
08/05:30am 18.2 - - - - - - - - - 1021.9 1021.8 -
08/05:00am 18.2 - - - - - - - - - 1021.6 1021.5 -
08/04:30am 18.1 - - - - - - - - - 1021.5 1021.4 -
08/04:00am 18.2 - - - - - - - - - 1021.3 1021.2 -
08/03:30am 18.3 - - - - - - - - - 1021.2 1021.1 -
08/03:00am 18.4 - - - - - - - - - 1021.2 1021.1 -
08/02:30am 18.6 - - - - - - - - - 1021.1 1021.0 -
08/02:00am 18.9 - - - - - - - - - 1021.0 1020.9 -
08/01:30am 19.3 - - - - - - - - - 1021.2 1021.1 -
08/01:00am 19.3 - - - - - - - - - 1021.4 1021.3 -
08/12:30am 19.5 - - - - - - - - - 1021.5 1021.4 -
08/12:00am 19.7 - - - - - - - - - 1021.6 1021.5 -
 
Date/Time
WST
Temp
°C
App
Temp
°C
Dew
Point
Rel
Hum
%
Delta-T
°C
Wind Press
QNH
hPa
Press
MSL
hPa
Rain
since 9 am
mm
Dir
 
Spd
km/h
Gust
km/h
Spd
kts
Gust
kts
07/11:30pm 19.9 - - - - - - - - - 1021.7 1021.6 -
07/11:00pm 20.3 - - - - - - - - - 1021.7 1021.6 -
07/10:30pm 20.8 - - - - - - - - - 1021.8 1021.7 -
07/10:00pm 20.8 - - - - - - - - - 1021.7 1021.6 -
07/09:30pm 20.5 - - - - - - - - - 1021.7 1021.6 -
07/09:00pm 20.6 - - - - - - - - - 1021.5 1021.4 -
07/08:30pm 20.7 - - - - - - - - - 1021.4 1021.3 -
07/08:00pm 20.8 - - - - - - - - - 1021.1 1021.0 -
07/07:30pm 20.7 - - - - - - - - - 1020.7 1020.7 -
07/07:00pm 20.9 - - - - - - - - - 1020.4 1020.4 -
07/06:30pm 21.2 - - - - - - - - - 1020.2 1020.2 -
07/06:00pm 21.6 - - - - - - - - - 1019.9 1019.9 -
07/05:30pm 22.0 - - - - - - - - - 1019.6 1019.6 -
07/05:00pm 22.2 - - - - - - - - - 1019.3 1019.3 -
07/04:30pm 22.4 - - - - - - - - - 1019.2 1019.2 -
07/04:00pm 22.5 - - - - - - - - - 1019.2 1019.2 -
07/03:30pm 23.3 - - - - - - - - - 1019.1 1019.1 -
07/03:00pm 23.2 - - - - - - - - - 1019.2 1019.2 -
07/02:30pm 22.9 - - - - - - - - - 1019.2 1019.2 -
07/02:00pm 22.3 - - - - - - - - - 1019.5 1019.5 -
07/01:30pm 22.2 - - - - - - - - - 1019.5 1019.5 -
07/01:00pm 21.5 - - - - - - - - - 1019.6 1019.6 -
07/12:30pm 21.2 - - - - - - - - - 1019.8 1019.8 -
07/12:00pm 21.3 - - - - - - - - - 1020.1 1020.1 -
07/11:30am 21.2 - - - - - - - - - 1020.4 1020.4 -
07/11:00am 21.0 - - - - - - - - - 1020.6 1020.6 -
07/10:30am 21.3 - - - - - - - - - 1020.9 1020.8 -
07/10:00am 21.6 - - - - - - - - - 1021.1 1021.0 -
07/09:30am 20.7 - - - - - - - - - 1021.2 1021.1 -
07/09:00am 19.7 - - - - - - - - - 1021.3 1021.2 -

Other Formats:

Comma delimited format used in spreadsheet applications
http://www.bom.gov.au/fwo/IDW60801/IDW60801.95648.axf

JavaScript Object Notation format (JSON) in row-major order
http://www.bom.gov.au/fwo/IDW60801/IDW60801.95648.json